createdAt,value
2022-11-29T00:01:45.375Z,80.60
2022-11-29T00:03:49.031Z,80.60
2022-11-29T00:05:53.263Z,80.50
2022-11-29T00:07:56.275Z,80.50
2022-11-29T00:09:59.230Z,80.50
2022-11-29T00:12:14.407Z,80.70
2022-11-29T00:14:19.128Z,80.70
2022-11-29T00:16:22.140Z,80.90
2022-11-29T00:18:25.088Z,80.80
2022-11-29T00:20:27.990Z,80.70
2022-11-29T00:22:30.972Z,80.70
2022-11-29T00:24:34.666Z,81.00
2022-11-29T00:26:38.095Z,80.80
2022-11-29T00:28:42.421Z,81.00
2022-11-29T00:30:45.460Z,80.80
2022-11-29T00:32:49.066Z,81.00
2022-11-29T00:34:52.015Z,80.90
2022-11-29T00:36:55.153Z,81.00
2022-11-29T00:38:58.092Z,80.90
2022-11-29T00:41:00.997Z,81.00
2022-11-29T00:43:03.985Z,80.90
2022-11-29T00:45:09.535Z,80.90
2022-11-29T00:47:12.483Z,81.00
2022-11-29T00:49:15.656Z,81.00
2022-11-29T00:51:18.670Z,81.00
2022-11-29T00:53:21.775Z,81.30
2022-11-29T00:55:24.792Z,81.40
2022-11-29T00:57:27.854Z,81.50
2022-11-29T00:59:31.307Z,81.60
2022-11-29T01:01:35.847Z,81.50
2022-11-29T01:03:39.047Z,81.30
2022-11-29T01:05:42.929Z,81.40
2022-11-29T01:07:45.928Z,81.50
2022-11-29T01:09:49.028Z,81.60
2022-11-29T01:11:51.946Z,81.30
2022-11-29T01:13:57.915Z,81.40
2022-11-29T01:16:01.053Z,81.40
2022-11-29T01:18:05.693Z,81.50
2022-11-29T01:20:11.667Z,81.40
2022-11-29T01:22:14.812Z,81.60
2022-11-29T01:24:17.790Z,81.60
2022-11-29T01:26:23.341Z,81.60
2022-11-29T01:28:26.542Z,81.60
2022-11-29T01:30:29.594Z,81.60
2022-11-29T01:32:32.564Z,81.60
2022-11-29T01:34:38.214Z,81.70
2022-11-29T01:36:41.235Z,81.80
2022-11-29T01:38:44.177Z,81.60
2022-11-29T01:40:56.972Z,81.70
2022-11-29T01:42:59.916Z,81.70
2022-11-29T01:45:08.968Z,81.70
2022-11-29T01:47:12.416Z,82.10
2022-11-29T01:49:18.391Z,81.90
2022-11-29T01:51:23.138Z,81.90
2022-11-29T01:53:26.163Z,82.00
2022-11-29T01:55:29.364Z,82.00
2022-11-29T01:57:34.253Z,82.10
2022-11-29T01:59:39.954Z,82.00
2022-11-29T02:01:43.135Z,82.10
2022-11-29T02:03:46.277Z,82.20
2022-11-29T02:05:51.753Z,81.80
2022-11-29T02:07:58.742Z,82.10
2022-11-29T02:10:02.178Z,82.20
2022-11-29T02:12:18.187Z,82.20
2022-11-29T02:14:35.211Z,82.30
2022-11-29T02:16:47.663Z,82.20
2022-11-29T02:18:59.022Z,82.00
2022-11-29T02:21:22.879Z,81.90
2022-11-29T02:24:00.756Z,82.30
2022-11-29T02:26:18.121Z,82.20
2022-11-29T02:29:00.697Z,82.10
2022-11-29T02:31:30.919Z,82.10
2022-11-29T02:33:53.573Z,82.30
2022-11-29T02:36:20.407Z,82.30
2022-11-29T02:38:38.516Z,82.30
2022-11-29T02:41:05.361Z,82.30
2022-11-29T02:43:47.413Z,82.30
2022-11-29T02:46:04.131Z,83.00
2022-11-29T02:48:21.592Z,82.30
2022-11-29T02:50:37.821Z,82.60
2022-11-29T02:52:47.572Z,82.60
2022-11-29T02:54:56.331Z,82.50
2022-11-29T02:57:05.426Z,82.60
2022-11-29T02:59:16.016Z,82.60
2022-11-29T03:01:24.755Z,82.80
2022-11-29T03:03:34.232Z,82.70
2022-11-29T03:05:44.820Z,83.30
2022-11-29T03:07:54.698Z,82.40
2022-11-29T03:10:03.745Z,82.70
2022-11-29T03:12:18.458Z,82.70
2022-11-29T03:14:26.080Z,82.60
2022-11-29T03:16:42.544Z,82.70
2022-11-29T03:18:58.714Z,82.60
2022-11-29T03:21:13.858Z,82.70
2022-11-29T03:23:24.231Z,82.70
2022-11-29T03:25:34.474Z,82.70
2022-11-29T03:27:42.954Z,82.80
2022-11-29T03:29:51.149Z,82.50
2022-11-29T03:32:00.640Z,82.60
2022-11-29T03:34:13.879Z,82.70
2022-11-29T03:36:26.731Z,82.80
2022-11-29T03:38:33.946Z,83.00
2022-11-29T03:40:44.603Z,82.80
2022-11-29T03:42:54.258Z,82.80
2022-11-29T03:45:04.316Z,82.70
2022-11-29T03:47:11.098Z,82.70
2022-11-29T03:49:21.746Z,82.80
2022-11-29T03:51:44.091Z,82.70
2022-11-29T03:53:52.856Z,82.90
2022-11-29T03:55:59.966Z,83.10
2022-11-29T03:58:19.222Z,82.90
2022-11-29T04:00:22.969Z,83.00
2022-11-29T04:03:13.238Z,82.90
2022-11-29T04:05:43.072Z,83.00
2022-11-29T04:08:03.003Z,83.00
2022-11-29T04:10:18.029Z,83.10
2022-11-29T04:12:54.216Z,82.90
2022-11-29T04:15:37.561Z,83.10
2022-11-29T04:18:11.575Z,83.00
2022-11-29T04:20:56.416Z,83.20
2022-11-29T04:23:40.870Z,83.00
2022-11-29T04:26:18.594Z,83.00
2022-11-29T04:28:52.031Z,83.00
2022-11-29T04:31:03.410Z,83.10
2022-11-29T04:33:50.375Z,83.10
2022-11-29T04:36:12.985Z,83.20
2022-11-29T04:38:43.637Z,83.10
2022-11-29T04:41:16.585Z,83.90
2022-11-29T04:43:58.641Z,83.20
2022-11-29T04:46:20.167Z,83.10
2022-11-29T04:48:48.316Z,83.30
2022-11-29T04:51:00.937Z,83.20
2022-11-29T04:53:34.629Z,83.00
2022-11-29T04:55:46.844Z,83.30
2022-11-29T04:57:56.830Z,83.20
2022-11-29T05:00:09.862Z,83.20
2022-11-29T05:02:30.255Z,83.30
2022-11-29T05:04:40.770Z,83.30
2022-11-29T05:06:55.014Z,83.50
2022-11-29T05:09:08.203Z,83.90
2022-11-29T05:11:20.770Z,83.20
2022-11-29T05:13:35.943Z,83.40
2022-11-29T05:15:55.788Z,83.30
2022-11-29T05:18:07.735Z,83.50
2022-11-29T05:20:27.288Z,83.50
2022-11-29T05:22:36.482Z,83.50
2022-11-29T05:24:50.023Z,83.50
2022-11-29T05:27:00.943Z,83.50
2022-11-29T05:29:11.051Z,83.40
2022-11-29T05:31:35.309Z,83.20
2022-11-29T05:33:55.466Z,83.40
2022-11-29T05:36:07.769Z,83.30
2022-11-29T05:38:39.159Z,83.30
2022-11-29T05:40:54.764Z,83.60
2022-11-29T05:43:14.079Z,83.60
2022-11-29T05:45:25.292Z,83.40
2022-11-29T05:47:33.458Z,83.60
2022-11-29T05:49:42.251Z,83.60
2022-11-29T05:51:53.990Z,83.70
2022-11-29T05:54:08.922Z,83.70
2022-11-29T05:56:16.606Z,83.50
2022-11-29T05:58:30.764Z,83.50
2022-11-29T06:00:44.385Z,83.50
2022-11-29T06:02:57.657Z,83.40
2022-11-29T06:05:08.807Z,83.60
2022-11-29T06:07:17.784Z,83.50
2022-11-29T06:09:25.497Z,83.40
2022-11-29T06:11:34.412Z,83.70
2022-11-29T06:13:51.104Z,83.60
2022-11-29T06:16:24.924Z,83.80
2022-11-29T06:18:41.575Z,83.80
2022-11-29T06:20:53.927Z,83.80
2022-11-29T06:23:12.155Z,83.80
2022-11-29T06:25:38.009Z,83.90
2022-11-29T06:27:57.492Z,83.80
2022-11-29T06:30:06.859Z,83.80
2022-11-29T06:32:25.211Z,83.70
2022-11-29T06:34:34.148Z,83.80
2022-11-29T06:36:41.544Z,83.70
2022-11-29T06:38:45.883Z,83.70
2022-11-29T06:40:49.453Z,83.80
2022-11-29T06:42:52.552Z,83.90
2022-11-29T06:44:56.302Z,83.90
2022-11-29T06:47:07.086Z,84.00
2022-11-29T06:49:15.418Z,83.90
2022-11-29T06:51:26.739Z,83.90
2022-11-29T06:53:39.953Z,84.10
2022-11-29T06:55:53.622Z,84.10
2022-11-29T06:58:07.203Z,84.00
2022-11-29T07:00:16.997Z,84.20
2022-11-29T07:02:44.015Z,84.20
2022-11-29T07:05:01.137Z,84.20
2022-11-29T07:07:04.637Z,84.00
2022-11-29T07:09:14.867Z,84.10
2022-11-29T07:11:17.967Z,83.90
2022-11-29T07:13:22.201Z,84.10
2022-11-29T07:15:25.974Z,84.30
2022-11-29T07:17:38.564Z,84.10
2022-11-29T07:19:50.349Z,84.90
2022-11-29T07:22:02.046Z,84.20
2022-11-29T07:24:23.627Z,84.10
2022-11-29T07:26:36.220Z,84.40
2022-11-29T07:28:51.960Z,84.40
2022-11-29T07:31:03.488Z,84.50
2022-11-29T07:33:16.625Z,84.20
2022-11-29T07:35:33.638Z,84.30
2022-11-29T07:37:45.302Z,84.50
2022-11-29T07:39:57.701Z,84.50
2022-11-29T07:42:08.307Z,84.40
2022-11-29T07:44:20.434Z,84.50
2022-11-29T07:46:23.939Z,84.60
2022-11-29T07:48:26.954Z,84.60
2022-11-29T07:50:30.979Z,84.50
2022-11-29T07:52:34.858Z,84.50
2022-11-29T07:54:39.429Z,84.40
2022-11-29T07:56:42.341Z,84.40
2022-11-29T07:58:45.495Z,84.50
2022-11-29T08:00:48.707Z,84.40
2022-11-29T08:02:52.649Z,84.40
2022-11-29T08:04:55.552Z,84.40
2022-11-29T08:07:00.016Z,84.30
2022-11-29T08:09:03.102Z,84.30
2022-11-29T08:11:11.799Z,84.60
2022-11-29T08:13:15.307Z,84.60
2022-11-29T08:15:19.036Z,84.70
2022-11-29T08:17:22.544Z,84.80
2022-11-29T08:19:39.263Z,84.60
2022-11-29T08:21:46.799Z,84.60
2022-11-29T08:23:50.377Z,84.90
2022-11-29T08:26:00.161Z,84.80
2022-11-29T08:28:03.769Z,84.90
2022-11-29T08:30:07.900Z,85.60
2022-11-29T08:32:10.772Z,85.10
2022-11-29T08:34:13.802Z,85.10
2022-11-29T08:36:19.705Z,85.10
2022-11-29T08:38:22.530Z,85.00
2022-11-29T08:40:25.395Z,85.00
2022-11-29T08:42:28.255Z,85.00
2022-11-29T08:44:31.273Z,85.10
2022-11-29T08:46:48.023Z,85.00
2022-11-29T08:48:50.910Z,84.90
2022-11-29T08:50:55.634Z,85.00
2022-11-29T08:53:17.519Z,85.30
2022-11-29T08:55:21.721Z,85.40
2022-11-29T08:57:39.733Z,85.20
2022-11-29T08:59:44.997Z,85.90
2022-11-29T09:01:48.086Z,85.30
2022-11-29T09:04:07.725Z,85.40
2022-11-29T09:06:13.064Z,85.50
2022-11-29T09:08:17.251Z,85.30
2022-11-29T09:10:20.157Z,85.30
2022-11-29T09:12:22.934Z,85.20
2022-11-29T09:14:25.879Z,85.00
2022-11-29T09:16:30.802Z,85.20
2022-11-29T09:18:33.627Z,85.10
2022-11-29T09:20:36.481Z,84.90
2022-11-29T09:22:39.317Z,84.80
2022-11-29T09:24:43.856Z,85.10
2022-11-29T09:26:48.424Z,85.00
2022-11-29T09:28:51.265Z,84.70
2022-11-29T09:30:54.194Z,84.60
2022-11-29T09:32:57.023Z,84.40
2022-11-29T09:34:59.835Z,84.60
2022-11-29T09:37:02.868Z,84.60
2022-11-29T09:39:05.700Z,84.70
2022-11-29T09:41:23.183Z,85.10
2022-11-29T09:43:34.646Z,84.60
2022-11-29T09:45:41.450Z,84.90
2022-11-29T09:48:04.858Z,84.30
2022-11-29T09:50:22.224Z,84.00
2022-11-29T09:52:37.928Z,84.40
2022-11-29T09:54:52.917Z,85.50
2022-11-29T09:56:58.184Z,85.10
2022-11-29T09:59:04.741Z,85.30
2022-11-29T10:01:11.883Z,85.00
2022-11-29T10:03:23.217Z,84.30
2022-11-29T10:05:31.000Z,84.90
2022-11-29T10:07:39.114Z,85.60
2022-11-29T10:09:45.985Z,85.80
2022-11-29T10:12:03.173Z,86.10
2022-11-29T10:14:13.901Z,86.20
2022-11-29T10:16:24.541Z,87.00
2022-11-29T10:18:34.857Z,86.60
2022-11-29T10:20:44.660Z,86.30
2022-11-29T10:22:56.425Z,85.90
2022-11-29T10:25:02.281Z,86.00
2022-11-29T10:27:15.216Z,85.60
2022-11-29T10:29:18.243Z,85.10
2022-11-29T10:31:25.030Z,86.00
2022-11-29T10:33:31.515Z,85.80
2022-11-29T10:35:34.701Z,85.40
2022-11-29T10:37:37.676Z,85.60
2022-11-29T10:39:45.532Z,85.10
2022-11-29T10:41:52.648Z,85.30
2022-11-29T10:43:59.315Z,85.90
2022-11-29T10:46:02.559Z,86.60
2022-11-29T10:48:08.998Z,86.20
2022-11-29T10:50:17.655Z,85.40
2022-11-29T10:52:22.439Z,85.50
2022-11-29T10:54:39.346Z,85.10
2022-11-29T10:56:43.027Z,85.00
2022-11-29T10:58:58.000Z,85.50
2022-11-29T11:01:02.602Z,85.50
2022-11-29T11:03:24.027Z,84.70
2022-11-29T11:05:27.951Z,85.80
2022-11-29T11:07:33.331Z,84.80
2022-11-29T11:09:38.912Z,85.60
2022-11-29T11:11:45.145Z,85.40
2022-11-29T11:14:00.585Z,85.40
2022-11-29T11:16:11.256Z,85.60
2022-11-29T11:18:22.472Z,86.20
2022-11-29T11:20:26.898Z,86.70
2022-11-29T11:22:32.497Z,86.10
2022-11-29T11:24:40.709Z,85.60
2022-11-29T11:26:45.416Z,85.80
2022-11-29T11:28:53.987Z,85.20
2022-11-29T11:31:01.076Z,85.40
2022-11-29T11:33:20.289Z,85.90
2022-11-29T11:35:25.129Z,86.00
2022-11-29T11:37:29.509Z,86.50
2022-11-29T11:39:32.422Z,86.70
2022-11-29T11:41:56.158Z,86.70
2022-11-29T11:44:01.324Z,86.30
2022-11-29T11:46:08.317Z,87.10
2022-11-29T11:48:15.290Z,87.50
2022-11-29T11:50:28.566Z,87.80
2022-11-29T11:52:40.152Z,87.70
2022-11-29T11:54:47.287Z,87.30
2022-11-29T11:56:50.483Z,86.70
2022-11-29T11:58:55.695Z,86.70
2022-11-29T12:01:05.106Z,86.70
2022-11-29T12:03:32.533Z,85.90
2022-11-29T12:05:35.470Z,86.20
2022-11-29T12:08:07.462Z,86.70
2022-11-29T12:10:18.680Z,86.10
2022-11-29T12:12:25.076Z,86.50
2022-11-29T12:14:35.870Z,86.40
2022-11-29T12:16:41.411Z,86.30
2022-11-29T12:18:50.811Z,85.60
2022-11-29T12:20:58.132Z,85.70
2022-11-29T12:23:20.531Z,86.10
2022-11-29T12:25:28.050Z,86.10
2022-11-29T12:27:32.180Z,86.30
2022-11-29T12:29:36.112Z,86.00
2022-11-29T12:31:55.174Z,85.60
2022-11-29T12:34:11.116Z,86.00
2022-11-29T12:36:24.207Z,85.00
2022-11-29T12:38:53.163Z,85.60
2022-11-29T12:41:03.828Z,86.30
2022-11-29T12:43:17.154Z,86.20
2022-11-29T12:45:35.330Z,87.00
2022-11-29T12:47:52.013Z,86.90
2022-11-29T12:50:08.317Z,86.50
2022-11-29T12:52:19.871Z,87.10
2022-11-29T12:54:39.971Z,86.70
2022-11-29T12:56:47.540Z,86.90
2022-11-29T12:59:02.015Z,87.10
2022-11-29T13:01:15.415Z,87.10
2022-11-29T13:03:27.184Z,87.50
2022-11-29T13:05:44.950Z,87.30
2022-11-29T13:08:08.329Z,86.90
2022-11-29T13:10:27.005Z,86.20
2022-11-29T13:12:37.378Z,87.10
2022-11-29T13:14:49.594Z,86.90
2022-11-29T13:16:58.857Z,86.70
2022-11-29T13:19:08.199Z,87.10
2022-11-29T13:21:15.978Z,87.20
2022-11-29T13:23:39.000Z,86.60
2022-11-29T13:25:51.794Z,87.00
2022-11-29T13:27:58.441Z,88.00
2022-11-29T13:30:02.491Z,87.50
2022-11-29T13:32:14.292Z,87.30
2022-11-29T13:34:23.487Z,88.70
2022-11-29T13:36:34.205Z,87.30
2022-11-29T13:38:43.134Z,87.80
2022-11-29T13:40:55.388Z,87.80
2022-11-29T13:43:05.017Z,87.40
2022-11-29T13:45:17.784Z,86.50
2022-11-29T13:47:21.503Z,86.60
2022-11-29T13:49:51.677Z,87.00
2022-11-29T13:52:06.985Z,86.90
2022-11-29T13:54:29.047Z,86.40
2022-11-29T13:56:42.849Z,87.20
2022-11-29T13:58:45.747Z,87.30
2022-11-29T14:00:52.675Z,87.30
2022-11-29T14:02:56.138Z,87.20
2022-11-29T14:04:59.501Z,87.30
2022-11-29T14:07:10.026Z,87.20
2022-11-29T14:09:24.703Z,87.00
2022-11-29T14:11:32.594Z,87.40
2022-11-29T14:13:44.885Z,87.50
2022-11-29T14:15:56.252Z,87.40
2022-11-29T14:18:01.298Z,87.30
2022-11-29T14:20:52.606Z,87.30
2022-11-29T14:23:17.062Z,87.20
2022-11-29T14:25:50.452Z,86.10
2022-11-29T14:28:01.741Z,86.00
2022-11-29T14:30:04.928Z,86.60
2022-11-29T14:32:23.417Z,86.90
2022-11-29T14:34:40.048Z,86.90
2022-11-29T14:36:51.108Z,88.10
2022-11-29T14:39:06.022Z,88.10
2022-11-29T14:41:23.295Z,87.70
2022-11-29T14:43:34.206Z,87.80
2022-11-29T14:45:37.178Z,87.80
2022-11-29T14:47:49.862Z,87.30
2022-11-29T14:49:55.601Z,86.90
2022-11-29T14:52:20.048Z,87.30
2022-11-29T14:54:24.316Z,87.70
2022-11-29T14:56:39.520Z,87.40
2022-11-29T14:58:42.610Z,87.00
2022-11-29T15:01:09.591Z,86.70
2022-11-29T15:03:19.924Z,87.00
2022-11-29T15:05:28.930Z,87.10
2022-11-29T15:07:33.682Z,87.30
2022-11-29T15:09:39.094Z,86.80
2022-11-29T15:11:50.220Z,87.70
2022-11-29T15:14:00.378Z,87.80
2022-11-29T15:16:35.619Z,87.70
2022-11-29T15:19:05.234Z,88.10
2022-11-29T15:21:20.927Z,87.80
2022-11-29T15:23:23.956Z,87.50
2022-11-29T15:25:31.836Z,87.90
2022-11-29T15:27:39.870Z,88.00
2022-11-29T15:29:43.243Z,88.10
2022-11-29T15:31:50.662Z,87.60
2022-11-29T15:33:53.542Z,87.80
2022-11-29T15:36:04.124Z,87.90
2022-11-29T15:38:06.972Z,88.30
2022-11-29T15:40:15.400Z,87.90
2022-11-29T15:42:19.560Z,87.80
2022-11-29T15:44:23.626Z,87.80
2022-11-29T15:46:27.862Z,87.00
2022-11-29T15:48:32.537Z,87.50
2022-11-29T15:50:35.811Z,87.20
2022-11-29T15:52:39.414Z,87.40
2022-11-29T15:54:44.634Z,87.80
2022-11-29T15:56:51.888Z,87.60
2022-11-29T15:59:02.509Z,88.10
2022-11-29T16:01:06.206Z,87.60
2022-11-29T16:03:19.893Z,88.20
2022-11-29T16:05:26.078Z,88.20
2022-11-29T16:07:32.282Z,87.60
2022-11-29T16:09:41.631Z,87.30
2022-11-29T16:11:45.301Z,87.80
2022-11-29T16:14:05.189Z,87.80
2022-11-29T16:16:15.031Z,88.20
2022-11-29T16:18:26.383Z,88.40
2022-11-29T16:20:30.076Z,89.00
2022-11-29T16:22:32.902Z,88.30
2022-11-29T16:24:37.497Z,88.30
2022-11-29T16:26:43.312Z,88.10
2022-11-29T16:28:48.014Z,88.00
2022-11-29T16:30:52.533Z,88.80
2022-11-29T16:32:57.556Z,88.80
2022-11-29T16:35:08.762Z,88.40
2022-11-29T16:37:18.810Z,88.10
2022-11-29T16:39:25.087Z,88.00
2022-11-29T16:41:33.304Z,88.30
2022-11-29T16:43:53.623Z,88.50
2022-11-29T16:48:32.251Z,88.20
2022-11-29T16:50:35.142Z,88.30
2022-11-29T16:52:37.941Z,88.50
2022-11-29T16:54:42.365Z,87.90
2022-11-29T16:56:45.203Z,88.50
2022-11-29T16:59:20.579Z,88.80
2022-11-29T17:01:20.131Z,89.00
2022-11-29T17:03:23.467Z,88.10
2022-11-29T17:05:31.491Z,88.10
2022-11-29T17:07:38.234Z,87.60
2022-11-29T17:09:41.131Z,87.80
2022-11-29T17:11:43.950Z,87.90
2022-11-29T17:13:47.593Z,87.80
2022-11-29T17:15:50.397Z,87.70
2022-11-29T17:17:53.229Z,87.50
2022-11-29T17:19:56.075Z,87.40
2022-11-29T17:22:00.512Z,87.40
2022-11-29T17:24:03.499Z,87.00
2022-11-29T17:26:07.582Z,87.40
2022-11-29T17:28:10.357Z,87.60
2022-11-29T17:30:14.376Z,87.70
2022-11-29T17:32:18.407Z,87.50
2022-11-29T17:34:23.549Z,87.50
2022-11-29T17:36:26.716Z,87.30
2022-11-29T17:38:32.450Z,87.20
2022-11-29T17:40:35.286Z,87.20
2022-11-29T17:42:38.297Z,87.30
2022-11-29T17:44:41.216Z,87.30
2022-11-29T17:46:44.065Z,87.00
2022-11-29T17:48:47.077Z,87.10
2022-11-29T17:50:49.870Z,87.10
2022-11-29T17:52:52.785Z,87.00
2022-11-29T17:54:56.948Z,86.90
2022-11-29T17:56:59.955Z,86.90
2022-11-29T17:59:03.836Z,86.90
2022-11-29T18:01:08.125Z,86.80
2022-11-29T18:03:11.053Z,86.90
2022-11-29T18:05:13.890Z,86.70
2022-11-29T18:07:17.242Z,86.80
2022-11-29T18:09:20.506Z,86.70
2022-11-29T18:11:28.826Z,86.70
2022-11-29T18:13:31.746Z,86.90
2022-11-29T18:15:34.632Z,86.60
2022-11-29T18:17:37.505Z,86.90
2022-11-29T18:19:40.337Z,87.00
2022-11-29T18:21:43.633Z,87.10
2022-11-29T18:23:46.550Z,87.00
2022-11-29T18:25:56.819Z,86.90
2022-11-29T18:28:01.022Z,86.80
2022-11-29T18:30:03.975Z,86.90
2022-11-29T18:32:06.883Z,86.90
2022-11-29T18:34:11.358Z,86.90
2022-11-29T18:36:16.873Z,86.80
2022-11-29T18:38:19.685Z,86.70
2022-11-29T18:40:23.474Z,86.40
2022-11-29T18:42:26.294Z,86.90
2022-11-29T18:44:30.536Z,86.90
2022-11-29T18:46:35.699Z,86.90
2022-11-29T18:48:38.787Z,86.90
2022-11-29T18:50:41.587Z,86.90
2022-11-29T18:52:44.438Z,86.40
2022-11-29T18:54:47.564Z,86.40
2022-11-29T18:56:51.708Z,86.50
2022-11-29T18:58:58.348Z,86.50
2022-11-29T19:01:08.734Z,86.40
2022-11-29T19:03:11.589Z,86.80
2022-11-29T19:05:14.394Z,87.30
2022-11-29T19:07:17.327Z,86.80
2022-11-29T19:09:21.979Z,87.00
2022-11-29T19:11:28.455Z,87.10
2022-11-29T19:13:31.340Z,87.20
2022-11-29T19:15:34.291Z,87.10
2022-11-29T19:17:42.978Z,86.90
2022-11-29T19:19:46.598Z,86.80
2022-11-29T19:21:49.889Z,86.80
2022-11-29T19:23:54.214Z,86.70
2022-11-29T19:26:02.945Z,86.70
2022-11-29T19:28:12.583Z,86.70
2022-11-29T19:30:17.757Z,86.60
2022-11-29T19:32:20.912Z,86.50
2022-11-29T19:34:25.360Z,86.50
2022-11-29T19:36:30.306Z,86.40
2022-11-29T19:38:33.662Z,86.40
2022-11-29T19:40:36.491Z,86.40
2022-11-29T19:42:39.591Z,86.30
2022-11-29T19:45:14.795Z,86.20
2022-11-29T19:47:05.499Z,86.20
2022-11-29T19:49:09.658Z,86.20
2022-11-29T19:51:17.425Z,86.10
2022-11-29T19:53:20.510Z,86.20
2022-11-29T19:55:23.451Z,86.10
2022-11-29T19:57:26.340Z,86.00
2022-11-29T19:59:29.210Z,86.20
2022-11-29T20:01:40.212Z,86.20
2022-11-29T20:03:47.499Z,86.30
2022-11-29T20:05:56.247Z,86.30
2022-11-29T20:08:00.713Z,86.20
2022-11-29T20:10:03.633Z,86.10
2022-11-29T20:12:06.789Z,86.20
2022-11-29T20:14:12.236Z,86.20
2022-11-29T20:16:18.296Z,86.20
2022-11-29T20:18:21.216Z,86.20
2022-11-29T20:20:24.188Z,86.40
2022-11-29T20:22:27.039Z,86.10
2022-11-29T20:24:36.611Z,86.20
2022-11-29T20:26:44.044Z,86.20
2022-11-29T20:28:47.721Z,86.20
2022-11-29T20:30:50.766Z,86.40
2022-11-29T20:32:53.821Z,86.30
2022-11-29T20:34:58.433Z,86.10
2022-11-29T20:37:21.867Z,86.20
2022-11-29T20:39:34.358Z,86.20
2022-11-29T20:41:42.517Z,86.20
2022-11-29T20:43:51.366Z,86.00
2022-11-29T20:45:54.510Z,86.20
2022-11-29T20:48:01.734Z,86.20
2022-11-29T20:50:05.168Z,86.20
2022-11-29T20:52:11.933Z,86.30
2022-11-29T20:54:16.089Z,86.30
2022-11-29T20:56:20.307Z,86.10
2022-11-29T20:58:23.201Z,86.20
2022-11-29T21:00:26.169Z,86.00
2022-11-29T21:02:29.010Z,86.30
2022-11-29T21:04:31.888Z,86.40
2022-11-29T21:06:38.378Z,86.40
2022-11-29T21:08:41.480Z,86.40
2022-11-29T21:10:45.356Z,86.20
2022-11-29T21:12:50.571Z,86.40
2022-11-29T21:14:53.906Z,86.20
2022-11-29T21:16:57.375Z,86.40
2022-11-29T21:19:02.508Z,86.40
2022-11-29T21:21:17.987Z,86.60
2022-11-29T21:23:28.303Z,86.40
2022-11-29T21:25:42.264Z,86.40
2022-11-29T21:27:45.701Z,86.50
2022-11-29T21:29:50.815Z,86.60
2022-11-29T21:31:55.808Z,86.60
2022-11-29T21:33:59.190Z,86.60
2022-11-29T21:36:03.734Z,86.60
2022-11-29T21:38:10.527Z,86.60
2022-11-29T21:40:14.945Z,86.60
2022-11-29T21:42:17.851Z,86.60
2022-11-29T21:44:20.770Z,86.70
2022-11-29T21:46:25.074Z,86.50
2022-11-29T21:48:37.703Z,86.50
2022-11-29T21:50:40.611Z,86.40
2022-11-29T21:52:44.283Z,86.40
2022-11-29T21:54:47.423Z,86.60
2022-11-29T21:56:50.339Z,86.50
2022-11-29T21:58:53.363Z,86.50
2022-11-29T22:00:56.294Z,86.60
2022-11-29T22:03:00.534Z,86.70
2022-11-29T22:05:03.405Z,86.70
2022-11-29T22:07:06.284Z,86.50
2022-11-29T22:09:09.358Z,86.50
2022-11-29T22:11:14.381Z,86.60
2022-11-29T22:13:17.212Z,87.20
2022-11-29T22:15:24.630Z,86.70
2022-11-29T22:17:30.722Z,86.60
2022-11-29T22:19:36.537Z,86.40
2022-11-29T22:21:40.336Z,86.50
2022-11-29T22:23:43.191Z,86.60
2022-11-29T22:25:45.971Z,86.50
2022-11-29T22:27:50.730Z,86.60
2022-11-29T22:29:53.567Z,86.70
2022-11-29T22:31:57.559Z,86.60
2022-11-29T22:34:00.854Z,86.60
2022-11-29T22:36:06.225Z,86.60
2022-11-29T22:38:09.069Z,86.80
2022-11-29T22:40:12.729Z,86.50
2022-11-29T22:42:15.561Z,86.60
2022-11-29T22:44:18.440Z,86.50
2022-11-29T22:46:23.458Z,86.50
2022-11-29T22:48:26.356Z,86.70
2022-11-29T22:50:29.186Z,86.50
2022-11-29T22:52:33.362Z,86.40
2022-11-29T22:54:36.179Z,86.60
2022-11-29T22:56:40.960Z,86.60
2022-11-29T22:58:43.832Z,86.50
2022-11-29T23:00:46.635Z,86.80
2022-11-29T23:02:49.522Z,86.70
2022-11-29T23:04:52.319Z,86.70
2022-11-29T23:06:55.130Z,86.50
2022-11-29T23:09:03.962Z,86.70
2022-11-29T23:11:09.315Z,86.70
2022-11-29T23:13:12.146Z,86.60
2022-11-29T23:15:15.098Z,86.80
2022-11-29T23:17:17.950Z,86.80
2022-11-29T23:19:21.159Z,86.70
2022-11-29T23:21:26.076Z,86.60
2022-11-29T23:23:29.077Z,86.60
2022-11-29T23:25:33.267Z,86.50
2022-11-29T23:27:36.111Z,86.60
2022-11-29T23:29:38.984Z,86.60
2022-11-29T23:31:42.081Z,86.50
2022-11-29T23:33:45.022Z,86.60
2022-11-29T23:35:47.977Z,86.40
2022-11-29T23:37:50.838Z,86.50
2022-11-29T23:39:53.679Z,86.60
2022-11-29T23:41:57.872Z,86.50
2022-11-29T23:44:00.694Z,86.50
2022-11-29T23:46:07.412Z,86.50
2022-11-29T23:48:10.266Z,86.60
2022-11-29T23:50:13.517Z,86.60
2022-11-29T23:52:16.367Z,86.50
2022-11-29T23:54:19.181Z,86.60
2022-11-29T23:56:23.245Z,86.40
2022-11-29T23:58:28.659Z,86.40
